ルアンダ の空港の天気 - METARとTAF

ルアンダ国際空港 ( FNLU / LAD ) - アンゴラ ルアンダ
飛行場実況気象(Metar)
観測時間10/16 07:00 WAT (10/16 06:00 UTC)
風向・風速南 2m/s
視程8000m
天気現象
全天の8割程度の雲 雲底高度 610m
気温25℃
湿度83%
気圧1014hPa
METARFNLU 160600Z 18004KT 8000 BKN020 25/22 Q1014 NOSIG
過去の天気等 Google飛行場航空写真 Wunderground天気予報

過去48時間のMETAR

飛行場予報(TAF)
発表時間: 10/16 06:00 WAT (10/16 05:00 UTC)
予報対象時間: 16日7時 WAT ~ 17日13時 WAT
風向・風速南 3m/s
視程8000m
全天の8割程度の雲 雲底高度 610m
16日13時 WAT ~ 16日15時 WAT に徐々に
風向・風速西 5m/s
視程10km以上
全天の4割程度の雲 雲底高度 610m
全天の8割程度の雲 雲底高度 910m
16日15時 WAT ~ 16日19時 WAT に一時的に
少しの雲 雲底高度 670m
TAF FNLU 160500Z 1606/1712 18005KT 8000 BKN020
BECMG 1612/1614 28010KT 9999 SCT020 BKN030
TEMPO 1614/1618 FEW022